sensor_id;sensor_type;location;lat;lon;timestamp;P1;durP1;ratioP1;P2;durP2;ratioP2
51915;SDS011;37942;53.218;6.548;2022-08-19T13:28:37;25.88;;;15.95;;
51915;SDS011;37942;53.218;6.548;2022-08-19T13:31:23;23.40;;;14.10;;
51915;SDS011;37942;53.218;6.548;2022-08-19T13:34:08;26.85;;;14.07;;
51915;SDS011;37942;53.218;6.548;2022-08-19T13:36:35;23.75;;;14.00;;
51915;SDS011;37942;53.218;6.548;2022-08-19T13:39:01;21.70;;;13.57;;
51915;SDS011;37942;53.218;6.548;2022-08-19T13:41:27;21.23;;;13.18;;
51915;SDS011;37942;53.218;6.548;2022-08-19T13:43:53;19.90;;;12.70;;
51915;SDS011;37942;53.218;6.548;2022-08-19T13:46:20;21.40;;;13.10;;
51915;SDS011;37942;53.218;6.548;2022-08-19T13:48:46;21.25;;;13.65;;
51915;SDS011;37942;53.218;6.548;2022-08-19T13:51:17;22.17;;;13.20;;
51915;SDS011;37942;53.218;6.548;2022-08-19T13:53:43;20.33;;;12.32;;
51915;SDS011;37942;53.218;6.548;2022-08-19T13:56:14;18.70;;;12.60;;
51915;SDS011;37942;53.218;6.548;2022-08-19T13:58:40;20.08;;;12.23;;
51915;SDS011;37942;53.218;6.548;2022-08-19T14:01:07;20.20;;;11.18;;
51915;SDS011;37942;53.218;6.548;2022-08-19T14:03:34;19.30;;;11.20;;
51915;SDS011;37942;53.218;6.548;2022-08-19T14:06:00;20.38;;;9.45;;
51915;SDS011;37942;53.218;6.548;2022-08-19T14:08:26;15.68;;;9.27;;
51915;SDS011;37942;53.218;6.548;2022-08-19T14:10:53;15.65;;;9.60;;
51915;SDS011;37942;53.218;6.548;2022-08-19T14:13:20;17.45;;;10.63;;
51915;SDS011;37942;53.218;6.548;2022-08-19T14:15:47;18.80;;;10.98;;
51915;SDS011;37942;53.218;6.548;2022-08-19T14:18:14;22.95;;;11.88;;
51915;SDS011;37942;53.218;6.548;2022-08-19T14:20:41;18.45;;;12.10;;
51915;SDS011;37942;53.218;6.548;2022-08-19T14:23:09;25.77;;;14.38;;
51915;SDS011;37942;53.218;6.548;2022-08-19T14:25:37;25.70;;;14.88;;
51915;SDS011;37942;53.218;6.548;2022-08-19T14:28:03;27.15;;;15.35;;
51915;SDS011;37942;53.218;6.548;2022-08-19T14:30:30;24.52;;;16.38;;
51915;SDS011;37942;53.218;6.548;2022-08-19T14:32:57;28.90;;;16.73;;
51915;SDS011;37942;53.218;6.548;2022-08-19T14:35:23;28.52;;;15.75;;
51915;SDS011;37942;53.218;6.548;2022-08-19T14:37:50;29.02;;;15.35;;
51915;SDS011;37942;53.218;6.548;2022-08-19T14:40:20;23.75;;;15.57;;
51915;SDS011;37942;53.218;6.548;2022-08-19T14:42:46;22.73;;;14.30;;
51915;SDS011;37942;53.218;6.548;2022-08-19T14:45:13;25.48;;;15.25;;
51915;SDS011;37942;53.218;6.548;2022-08-19T14:47:39;27.63;;;15.43;;
51915;SDS011;37942;53.218;6.548;2022-08-19T14:50:09;29.00;;;17.15;;
51915;SDS011;37942;53.218;6.548;2022-08-19T14:52:35;27.27;;;15.98;;
51915;SDS011;37942;53.218;6.548;2022-08-19T14:55:02;28.33;;;15.50;;
51915;SDS011;37942;53.218;6.548;2022-08-19T14:57:28;29.25;;;16.30;;
51915;SDS011;37942;53.218;6.548;2022-08-19T14:59:54;30.88;;;16.02;;
51915;SDS011;37942;53.218;6.548;2022-08-19T15:02:28;24.77;;;13.65;;
51915;SDS011;37942;53.218;6.548;2022-08-19T15:04:54;24.77;;;13.95;;
51915;SDS011;37942;53.218;6.548;2022-08-19T15:07:21;25.55;;;13.45;;
51915;SDS011;37942;53.218;6.548;2022-08-19T15:09:48;26.40;;;13.43;;
51915;SDS011;37942;53.218;6.548;2022-08-19T15:12:15;23.30;;;13.30;;
51915;SDS011;37942;53.218;6.548;2022-08-19T15:14:43;23.95;;;13.45;;
51915;SDS011;37942;53.218;6.548;2022-08-19T15:17:09;26.58;;;15.90;;
51915;SDS011;37942;53.218;6.548;2022-08-19T15:19:35;26.08;;;15.13;;
51915;SDS011;37942;53.218;6.548;2022-08-19T15:22:02;26.42;;;15.57;;
51915;SDS011;37942;53.218;6.548;2022-08-19T15:24:28;17.50;;;10.43;;
51915;SDS011;37942;53.218;6.548;2022-08-19T15:26:54;24.73;;;11.90;;
51915;SDS011;37942;53.218;6.548;2022-08-19T15:29:20;20.88;;;11.75;;
51915;SDS011;37942;53.218;6.548;2022-08-19T15:31:52;19.88;;;10.73;;
51915;SDS011;37942;53.218;6.548;2022-08-19T15:34:24;21.05;;;10.75;;
51915;SDS011;37942;53.218;6.548;2022-08-19T15:36:51;21.45;;;12.77;;
51915;SDS011;37942;53.218;6.548;2022-08-19T15:39:18;25.33;;;12.60;;
51915;SDS011;37942;53.218;6.548;2022-08-19T15:41:44;26.17;;;13.13;;
51915;SDS011;37942;53.218;6.548;2022-08-19T15:44:14;23.13;;;13.27;;
51915;SDS011;37942;53.218;6.548;2022-08-19T15:46:43;23.77;;;12.63;;
51915;SDS011;37942;53.218;6.548;2022-08-19T15:49:10;23.10;;;14.10;;
51915;SDS011;37942;53.218;6.548;2022-08-19T15:51:37;20.92;;;12.93;;
51915;SDS011;37942;53.218;6.548;2022-08-19T15:54:04;24.15;;;13.52;;
51915;SDS011;37942;53.218;6.548;2022-08-19T15:56:30;21.15;;;13.48;;
51915;SDS011;37942;53.218;6.548;2022-08-19T15:59:18;22.27;;;12.70;;
51915;SDS011;37942;53.218;6.548;2022-08-19T16:02:02;21.83;;;12.45;;
51915;SDS011;37942;53.218;6.548;2022-08-19T16:04:50;28.90;;;14.18;;
51915;SDS011;37942;53.218;6.548;2022-08-19T16:07:35;25.15;;;14.60;;
51915;SDS011;37942;53.218;6.548;2022-08-19T16:10:01;22.38;;;13.40;;
51915;SDS011;37942;53.218;6.548;2022-08-19T16:12:27;24.73;;;14.32;;
51915;SDS011;37942;53.218;6.548;2022-08-19T16:14:55;28.05;;;15.05;;
51915;SDS011;37942;53.218;6.548;2022-08-19T16:17:21;29.65;;;16.48;;
51915;SDS011;37942;53.218;6.548;2022-08-19T16:19:48;25.90;;;14.63;;
51915;SDS011;37942;53.218;6.548;2022-08-19T16:22:14;22.20;;;14.23;;
51915;SDS011;37942;53.218;6.548;2022-08-19T16:24:40;24.15;;;13.07;;
51915;SDS011;37942;53.218;6.548;2022-08-19T16:27:06;25.40;;;13.40;;
51915;SDS011;37942;53.218;6.548;2022-08-19T16:29:33;22.52;;;13.30;;
51915;SDS011;37942;53.218;6.548;2022-08-19T16:32:03;24.45;;;14.07;;
51915;SDS011;37942;53.218;6.548;2022-08-19T16:34:30;20.13;;;12.13;;
51915;SDS011;37942;53.218;6.548;2022-08-19T16:36:59;20.45;;;12.52;;
51915;SDS011;37942;53.218;6.548;2022-08-19T16:39:25;20.85;;;12.00;;
51915;SDS011;37942;53.218;6.548;2022-08-19T16:41:51;20.30;;;11.65;;
51915;SDS011;37942;53.218;6.548;2022-08-19T16:44:17;18.60;;;11.05;;
51915;SDS011;37942;53.218;6.548;2022-08-19T16:46:45;19.45;;;10.40;;
51915;SDS011;37942;53.218;6.548;2022-08-19T16:49:11;18.15;;;10.25;;
51915;SDS011;37942;53.218;6.548;2022-08-19T16:51:41;18.33;;;9.38;;
51915;SDS011;37942;53.218;6.548;2022-08-19T16:54:09;19.00;;;10.32;;
51915;SDS011;37942;53.218;6.548;2022-08-19T16:56:37;17.98;;;9.50;;
51915;SDS011;37942;53.218;6.548;2022-08-19T16:59:03;16.33;;;8.93;;
51915;SDS011;37942;53.218;6.548;2022-08-19T17:01:30;18.63;;;9.70;;
51915;SDS011;37942;53.218;6.548;2022-08-19T17:03:56;18.92;;;9.82;;
51915;SDS011;37942;53.218;6.548;2022-08-19T17:06:25;17.23;;;10.40;;
51915;SDS011;37942;53.218;6.548;2022-08-19T17:08:52;18.55;;;10.45;;
51915;SDS011;37942;53.218;6.548;2022-08-19T17:11:19;16.88;;;9.35;;
51915;SDS011;37942;53.218;6.548;2022-08-19T17:13:48;19.13;;;10.27;;
51915;SDS011;37942;53.218;6.548;2022-08-19T17:16:18;21.40;;;10.95;;
51915;SDS011;37942;53.218;6.548;2022-08-19T17:18:46;21.98;;;11.25;;
51915;SDS011;37942;53.218;6.548;2022-08-19T17:21:16;25.95;;;12.52;;
51915;SDS011;37942;53.218;6.548;2022-08-19T17:23:42;24.23;;;14.00;;
51915;SDS011;37942;53.218;6.548;2022-08-19T17:26:08;23.95;;;14.02;;
51915;SDS011;37942;53.218;6.548;2022-08-19T17:28:34;20.98;;;13.18;;
51915;SDS011;37942;53.218;6.548;2022-08-19T17:31:00;22.85;;;13.20;;
51915;SDS011;37942;53.218;6.548;2022-08-19T17:33:27;18.10;;;12.07;;
51915;SDS011;37942;53.218;6.548;2022-08-19T17:35:55;21.48;;;12.88;;
51915;SDS011;37942;53.218;6.548;2022-08-19T17:40:48;20.73;;;11.98;;
51915;SDS011;37942;53.218;6.548;2022-08-19T17:43:17;21.05;;;12.45;;
51915;SDS011;37942;53.218;6.548;2022-08-19T17:45:44;22.58;;;12.88;;
51915;SDS011;37942;53.218;6.548;2022-08-19T17:48:13;21.30;;;13.90;;
51915;SDS011;37942;53.218;6.548;2022-08-19T17:50:40;21.92;;;13.85;;
51915;SDS011;37942;53.218;6.548;2022-08-19T17:53:06;24.33;;;14.15;;
51915;SDS011;37942;53.218;6.548;2022-08-19T17:55:32;22.70;;;15.40;;
51915;SDS011;37942;53.218;6.548;2022-08-19T17:58:00;25.13;;;15.30;;
51915;SDS011;37942;53.218;6.548;2022-08-19T18:00:29;23.20;;;15.75;;
51915;SDS011;37942;53.218;6.548;2022-08-19T18:02:57;25.65;;;14.82;;
51915;SDS011;37942;53.218;6.548;2022-08-19T18:05:27;23.52;;;15.20;;
51915;SDS011;37942;53.218;6.548;2022-08-19T18:07:59;24.73;;;16.02;;
51915;SDS011;37942;53.218;6.548;2022-08-19T18:10:26;25.48;;;16.20;;
51915;SDS011;37942;53.218;6.548;2022-08-19T18:12:53;26.33;;;16.85;;
51915;SDS011;37942;53.218;6.548;2022-08-19T18:15:20;27.90;;;16.73;;
51915;SDS011;37942;53.218;6.548;2022-08-19T18:17:47;25.33;;;15.02;;
51915;SDS011;37942;53.218;6.548;2022-08-19T18:20:14;26.27;;;14.45;;
51915;SDS011;37942;53.218;6.548;2022-08-19T18:22:42;21.80;;;12.70;;
51915;SDS011;37942;53.218;6.548;2022-08-19T18:25:22;22.42;;;12.93;;
51915;SDS011;37942;53.218;6.548;2022-08-19T18:27:50;23.10;;;14.63;;
51915;SDS011;37942;53.218;6.548;2022-08-19T18:30:17;22.77;;;13.15;;
51915;SDS011;37942;53.218;6.548;2022-08-19T18:32:47;21.77;;;13.10;;
51915;SDS011;37942;53.218;6.548;2022-08-19T18:35:23;19.88;;;11.60;;
51915;SDS011;37942;53.218;6.548;2022-08-19T18:37:54;19.30;;;10.70;;
51915;SDS011;37942;53.218;6.548;2022-08-19T18:40:21;17.13;;;10.23;;
51915;SDS011;37942;53.218;6.548;2022-08-19T18:43:06;19.92;;;9.98;;
51915;SDS011;37942;53.218;6.548;2022-08-19T18:45:51;18.02;;;8.88;;
51915;SDS011;37942;53.218;6.548;2022-08-19T18:48:36;14.60;;;8.05;;
51915;SDS011;37942;53.218;6.548;2022-08-19T18:51:22;13.63;;;7.57;;
51915;SDS011;37942;53.218;6.548;2022-08-19T18:53:48;15.23;;;8.45;;
51915;SDS011;37942;53.218;6.548;2022-08-19T18:56:16;14.70;;;8.48;;
51915;SDS011;37942;53.218;6.548;2022-08-19T18:58:43;17.48;;;9.00;;
51915;SDS011;37942;53.218;6.548;2022-08-19T19:03:45;16.23;;;8.13;;
51915;SDS011;37942;53.218;6.548;2022-08-19T19:06:16;18.52;;;9.10;;
51915;SDS011;37942;53.218;6.548;2022-08-19T19:08:46;14.38;;;8.60;;
51915;SDS011;37942;53.218;6.548;2022-08-19T19:11:21;16.70;;;8.85;;
51915;SDS011;37942;53.218;6.548;2022-08-19T19:13:48;15.50;;;9.20;;
51915;SDS011;37942;53.218;6.548;2022-08-19T19:18:40;14.82;;;8.82;;
51915;SDS011;37942;53.218;6.548;2022-08-19T19:21:07;15.55;;;9.48;;
51915;SDS011;37942;53.218;6.548;2022-08-19T19:23:34;16.52;;;9.38;;
51915;SDS011;37942;53.218;6.548;2022-08-19T19:26:04;17.10;;;8.73;;
51915;SDS011;37942;53.218;6.548;2022-08-19T19:28:31;17.60;;;9.85;;
51915;SDS011;37942;53.218;6.548;2022-08-19T19:33:23;18.83;;;10.23;;
51915;SDS011;37942;53.218;6.548;2022-08-19T19:35:49;17.00;;;10.13;;
51915;SDS011;37942;53.218;6.548;2022-08-19T19:40:41;18.90;;;10.45;;
51915;SDS011;37942;53.218;6.548;2022-08-19T19:43:08;16.70;;;10.20;;
51915;SDS011;37942;53.218;6.548;2022-08-19T19:45:34;16.80;;;8.75;;
51915;SDS011;37942;53.218;6.548;2022-08-19T19:48:02;14.88;;;9.77;;
51915;SDS011;37942;53.218;6.548;2022-08-19T19:50:28;16.05;;;9.82;;
51915;SDS011;37942;53.218;6.548;2022-08-19T19:52:55;15.35;;;9.18;;
51915;SDS011;37942;53.218;6.548;2022-08-19T19:55:21;18.33;;;9.75;;
51915;SDS011;37942;53.218;6.548;2022-08-19T19:57:50;17.58;;;9.60;;
51915;SDS011;37942;53.218;6.548;2022-08-19T20:00:18;17.52;;;9.25;;
51915;SDS011;37942;53.218;6.548;2022-08-19T20:02:44;18.48;;;9.40;;
51915;SDS011;37942;53.218;6.548;2022-08-19T20:05:11;14.40;;;8.65;;
51915;SDS011;37942;53.218;6.548;2022-08-19T20:07:38;16.00;;;9.40;;
51915;SDS011;37942;53.218;6.548;2022-08-19T20:10:23;17.90;;;9.75;;
51915;SDS011;37942;53.218;6.548;2022-08-19T20:12:49;18.55;;;9.07;;
51915;SDS011;37942;53.218;6.548;2022-08-19T20:15:19;15.10;;;9.68;;
51915;SDS011;37942;53.218;6.548;2022-08-19T20:17:46;17.40;;;9.18;;
51915;SDS011;37942;53.218;6.548;2022-08-19T20:22:39;15.23;;;8.75;;
51915;SDS011;37942;53.218;6.548;2022-08-19T20:25:07;15.25;;;9.27;;
51915;SDS011;37942;53.218;6.548;2022-08-19T20:27:35;16.88;;;9.63;;
51915;SDS011;37942;53.218;6.548;2022-08-19T20:30:04;16.40;;;9.57;;
51915;SDS011;37942;53.218;6.548;2022-08-19T20:32:30;16.05;;;9.13;;
51915;SDS011;37942;53.218;6.548;2022-08-19T20:34:57;19.60;;;10.43;;
51915;SDS011;37942;53.218;6.548;2022-08-19T20:37:23;19.25;;;10.80;;
51915;SDS011;37942;53.218;6.548;2022-08-19T20:39:49;17.70;;;11.15;;
51915;SDS011;37942;53.218;6.548;2022-08-19T20:42:15;18.13;;;11.73;;
51915;SDS011;37942;53.218;6.548;2022-08-19T20:44:42;19.55;;;11.85;;
51915;SDS011;37942;53.218;6.548;2022-08-19T20:47:09;17.85;;;11.48;;
51915;SDS011;37942;53.218;6.548;2022-08-19T20:52:01;19.33;;;12.15;;
51915;SDS011;37942;53.218;6.548;2022-08-19T20:54:28;21.02;;;12.32;;
51915;SDS011;37942;53.218;6.548;2022-08-19T20:56:55;19.48;;;13.43;;
51915;SDS011;37942;53.218;6.548;2022-08-19T20:59:22;25.40;;;13.98;;
51915;SDS011;37942;53.218;6.548;2022-08-19T21:01:50;22.20;;;13.68;;
51915;SDS011;37942;53.218;6.548;2022-08-19T21:04:16;21.08;;;14.60;;
51915;SDS011;37942;53.218;6.548;2022-08-19T21:06:42;20.98;;;14.38;;
51915;SDS011;37942;53.218;6.548;2022-08-19T21:09:08;21.70;;;13.90;;
51915;SDS011;37942;53.218;6.548;2022-08-19T21:14:01;22.33;;;15.40;;
51915;SDS011;37942;53.218;6.548;2022-08-19T21:18:56;25.25;;;15.10;;
51915;SDS011;37942;53.218;6.548;2022-08-19T21:21:22;25.02;;;15.98;;
51915;SDS011;37942;53.218;6.548;2022-08-19T21:26:14;21.10;;;14.60;;
51915;SDS011;37942;53.218;6.548;2022-08-19T21:31:06;21.77;;;14.13;;
51915;SDS011;37942;53.218;6.548;2022-08-19T21:33:34;22.90;;;14.52;;
51915;SDS011;37942;53.218;6.548;2022-08-19T21:36:01;21.92;;;14.73;;
51915;SDS011;37942;53.218;6.548;2022-08-19T21:38:27;22.23;;;15.18;;
51915;SDS011;37942;53.218;6.548;2022-08-19T21:40:53;24.10;;;14.48;;
51915;SDS011;37942;53.218;6.548;2022-08-19T21:43:19;24.20;;;14.60;;
51915;SDS011;37942;53.218;6.548;2022-08-19T21:48:11;20.90;;;13.15;;
51915;SDS011;37942;53.218;6.548;2022-08-19T21:50:39;20.98;;;14.07;;
51915;SDS011;37942;53.218;6.548;2022-08-19T21:53:05;19.88;;;12.63;;
51915;SDS011;37942;53.218;6.548;2022-08-19T21:55:31;20.38;;;13.90;;
51915;SDS011;37942;53.218;6.548;2022-08-19T22:00:24;21.20;;;13.83;;
51915;SDS011;37942;53.218;6.548;2022-08-19T22:02:55;19.60;;;13.10;;
51915;SDS011;37942;53.218;6.548;2022-08-19T22:05:22;20.38;;;13.38;;
51915;SDS011;37942;53.218;6.548;2022-08-19T22:07:52;20.02;;;13.02;;
51915;SDS011;37942;53.218;6.548;2022-08-19T22:10:19;19.42;;;13.07;;
51915;SDS011;37942;53.218;6.548;2022-08-19T22:12:47;19.45;;;13.02;;
51915;SDS011;37942;53.218;6.548;2022-08-19T22:15:14;19.83;;;12.55;;
51915;SDS011;37942;53.218;6.548;2022-08-19T22:17:40;21.10;;;12.25;;
51915;SDS011;37942;53.218;6.548;2022-08-19T22:20:08;18.33;;;11.80;;
51915;SDS011;37942;53.218;6.548;2022-08-19T22:22:36;18.15;;;11.75;;
51915;SDS011;37942;53.218;6.548;2022-08-19T22:25:07;20.60;;;11.75;;
51915;SDS011;37942;53.218;6.548;2022-08-19T22:27:34;19.48;;;11.57;;
51915;SDS011;37942;53.218;6.548;2022-08-19T22:30:00;23.13;;;11.70;;
51915;SDS011;37942;53.218;6.548;2022-08-19T22:32:26;18.30;;;11.43;;
51915;SDS011;37942;53.218;6.548;2022-08-19T22:37:20;18.88;;;11.75;;
51915;SDS011;37942;53.218;6.548;2022-08-19T22:39:48;19.45;;;11.63;;
51915;SDS011;37942;53.218;6.548;2022-08-19T22:44:40;16.60;;;10.95;;
51915;SDS011;37942;53.218;6.548;2022-08-19T22:47:06;18.48;;;11.70;;
51915;SDS011;37942;53.218;6.548;2022-08-19T22:49:34;22.10;;;12.00;;
51915;SDS011;37942;53.218;6.548;2022-08-19T22:54:45;24.17;;;12.25;;
51915;SDS011;37942;53.218;6.548;2022-08-19T22:57:12;19.10;;;11.95;;
51915;SDS011;37942;53.218;6.548;2022-08-19T22:59:38;21.55;;;12.43;;
51915;SDS011;37942;53.218;6.548;2022-08-19T23:02:05;17.98;;;11.82;;
51915;SDS011;37942;53.218;6.548;2022-08-19T23:04:31;18.52;;;12.45;;
51915;SDS011;37942;53.218;6.548;2022-08-19T23:09:23;19.13;;;12.20;;
51915;SDS011;37942;53.218;6.548;2022-08-19T23:11:49;23.85;;;11.48;;
51915;SDS011;37942;53.218;6.548;2022-08-19T23:16:43;20.48;;;10.73;;
51915;SDS011;37942;53.218;6.548;2022-08-19T23:19:09;17.20;;;10.88;;
51915;SDS011;37942;53.218;6.548;2022-08-19T23:21:37;19.15;;;10.60;;
51915;SDS011;37942;53.218;6.548;2022-08-19T23:24:03;17.30;;;10.77;;
51915;SDS011;37942;53.218;6.548;2022-08-19T23:26:29;22.25;;;11.05;;
51915;SDS011;37942;53.218;6.548;2022-08-19T23:31:40;21.80;;;10.48;;
51915;SDS011;37942;53.218;6.548;2022-08-19T23:34:09;19.60;;;9.75;;
51915;SDS011;37942;53.218;6.548;2022-08-19T23:39:01;18.10;;;9.48;;
51915;SDS011;37942;53.218;6.548;2022-08-19T23:41:27;19.20;;;9.55;;
51915;SDS011;37942;53.218;6.548;2022-08-19T23:46:19;20.13;;;8.82;;
51915;SDS011;37942;53.218;6.548;2022-08-19T23:48:48;18.98;;;9.70;;
51915;SDS011;37942;53.218;6.548;2022-08-19T23:53:43;17.42;;;9.60;;
51915;SDS011;37942;53.218;6.548;2022-08-19T23:56:09;20.48;;;8.95;;
51915;SDS011;37942;53.218;6.548;2022-08-19T23:58:36;18.10;;;9.07;;
